Shabab Oman 2 — A4LB — position and weather

sailwx.info

Track history (hours):
 
Tides and Currents Weather Stations Pressure Air Temp Water Temp Dewpoint Dewpoint Depression Visibility Wind Speed Wind Dir Waves Ship Positions

Shabab Oman 2

Last reported at 2017-Jul-25 18:54 UTC. Time now 2017-Jul-26 10:48 UTC.
Position N 56°39' E 018°27'.

Length 86 m; draft 5.4 m.

Type: Sailing vessel. MMSI: 461000441.

Date/timePositionNaut miles runAvg speedWind from/ knotsBaromVisibWave heightAir tempDewpointWater temp
2017-Jul-25 18:54N 56°39' E 018°27'145 6.4
2017-Jul-24 20:17N 58°59' E 019°38'2 6.5
2017-Jul-24 19:59N 59°01' E 019°40'6 7.2
2017-Jul-24 19:07N 59°05' E 019°49'1 4.6
2017-Jul-24 18:59N 59°05' E 019°50'3 6.5
2017-Jul-24 18:30N 59°07' E 019°55'3 6.7
2017-Jul-24 18:00N 59°09' E 020°01'3 6.4
2017-Jul-24 17:29N 59°10' E 020°06'3 7.2
2017-Jul-24 17:00N 59°12' E 020°12'3 6.9
2017-Jul-24 16:30N 59°14' E 020°18'4 7.2
2017-Jul-24 16:00N 59°16' E 020°23'23 7.7
2017-Jul-24 13:01N 59°31' E 020°59'3 6.6
2017-Jul-24 12:30N 59°33' E 021°03'3 5.6
2017-Jul-24 12:00N 59°35' E 021°08'3 6.1
2017-Jul-24 11:30N 59°37' E 021°13'3 5.3
2017-Jul-24 11:00N 59°39' E 021°16'2 3.4
2017-Jul-24 10:31N 59°40' E 021°17'2 4.4
2017-Jul-24 10:00N 59°42' E 021°16'1 1.2
2017-Jul-24 09:30N 59°43' E 021°16'1 1.0
2017-Jul-24 09:00N 59°44' E 021°16'0 0.4
2017-Jul-24 08:31N 59°43' E 021°15'1 2.1
2017-Jul-24 08:00N 59°42' E 021°16'1 2.8
2017-Jul-24 07:30N 59°41' E 021°16'1 2.5
2017-Jul-24 07:00N 59°40' E 021°16'1 2.9
2017-Jul-24 06:30N 59°38' E 021°16'2 3.5
2017-Jul-24 06:00N 59°37' E 021°17'2 5.0
2017-Jul-24 05:31N 59°34' E 021°17'2 4.2
2017-Jul-24 05:00N 59°32' E 021°17'2 4.2
2017-Jul-24 04:30N 59°30' E 021°17'2 4.4
2017-Jul-24 04:00N 59°28' E 021°17'2 4.4
2017-Jul-24 03:30N 59°25' E 021°18'2 4.3
2017-Jul-24 03:00N 59°23' E 021°18'2 4.5
2017-Jul-24 02:30N 59°21' E 021°18'2 3.9
2017-Jul-24 02:00N 59°19' E 021°19'2 4.0
2017-Jul-24 01:30N 59°21' E 021°20'3 5.3
2017-Jul-24 01:00N 59°24' E 021°20'3 5.3
2017-Jul-24 00:30N 59°26' E 021°20'3 5.3
2017-Jul-24 00:00N 59°29' E 021°20'3 5.2
2017-Jul-23 23:30N 59°32' E 021°20'3 5.6
2017-Jul-23 23:00N 59°34' E 021°20'3 5.4
2017-Jul-23 22:30N 59°37' E 021°20'3 5.2
2017-Jul-23 22:00N 59°40' E 021°20'3 5.4
2017-Jul-23 21:30N 59°42' E 021°20'2 4.6
2017-Jul-23 21:00N 59°45' E 021°21'4 7.5
2017-Jul-23 20:30N 59°48' E 021°21'4 8.9
2017-Jul-23 20:00N 59°52' E 021°27'4 7.9
2017-Jul-23 19:30N 59°54' E 021°33'5 9.0
2017-Jul-23 19:01N 59°57' E 021°40'4 8.5
2017-Jul-23 18:30N 60°01' E 021°42'4 8.6
2017-Jul-23 18:00N 60°05' E 021°42'4 8.6
2017-Jul-23 17:30N 60°10' E 021°42'4 8.6
2017-Jul-23 17:00N 60°14' E 021°44'5 9.7
2017-Jul-23 16:30N 60°16' E 021°53'4 8.3
2017-Jul-23 16:00N 60°17' E 022°01'4 8.7
2017-Jul-23 15:31N 60°21' E 022°05'4 7.6
2017-Jul-23 15:00N 60°25' E 022°07'3 5.7
2017-Jul-23 14:30N 60°26' E 022°12'1 2.1
2017-Jul-23 14:00N 60°26' E 022°14'0 0.1
2017-Jul-23 13:30N 60°26' E 022°15'0 0.0
2017-Jul-23 13:00N 60°26' E 022°15'0 0.0
2017-Jul-23 12:31N 60°26' E 022°15'0 0.0
2017-Jul-23 12:00N 60°26' E 022°15'0 0.0
2017-Jul-23 11:30N 60°26' E 022°15'  
2017-Jul-19 11:59N 60°26' E 022°15'0 0.6
2017-Jul-19 11:30N 60°26' E 022°14'1 2.0
2017-Jul-19 11:01N 60°26' E 022°12'3 6.3
2017-Jul-19 10:31N 60°24' E 022°07'3 6.7
2017-Jul-19 10:01N 60°21' E 022°05'4 7.1
2017-Jul-19 09:30N 60°18' E 022°02'3 5.8
2017-Jul-19 09:00N 60°16' E 021°57'3 6.0
2017-Jul-19 08:30N 60°15' E 021°51'3 6.0
2017-Jul-19 08:01N 60°14' E 021°45'3 5.7
2017-Jul-19 07:30N 60°12' E 021°42'3 6.4
2017-Jul-19 07:01N 60°08' E 021°41'3 5.7
2017-Jul-19 06:30N 60°06' E 021°42'3 6.3
2017-Jul-19 06:01N 60°02' E 021°41'3 5.1
2017-Jul-19 05:31N 59°60' E 021°42'3 5.4
2017-Jul-19 05:01N 59°57' E 021°41'3 5.9
2017-Jul-19 04:30N 59°55' E 021°37'3 5.9
2017-Jul-19 04:00N 59°53' E 021°32'3 6.4
2017-Jul-19 03:31N 59°52' E 021°27'3 5.8
2017-Jul-19 03:00N 59°50' E 021°23'3 5.3
2017-Jul-19 02:30N 59°47' E 021°21'2 4.7
2017-Jul-19 02:01N 59°45' E 021°21'1 2.8
2017-Jul-19 01:30N 59°44' E 021°20'4 8.6
2017-Jul-19 01:00N 59°40' E 021°22'4 8.5
2017-Jul-19 00:31N 59°36' E 021°27'4 8.8
2017-Jul-19 00:00N 59°35' E 021°36'4 8.8
2017-Jul-18 23:30N 59°35' E 021°45'4 9.0
2017-Jul-18 23:00N 59°35' E 021°53'4 9.0
2017-Jul-18 22:30N 59°35' E 022°02'4 9.0
2017-Jul-18 22:00N 59°35' E 022°11'5 9.0
2017-Jul-18 21:30N 59°34' E 022°20'4 9.0
2017-Jul-18 21:00N 59°34' E 022°29'5 9.5
2017-Jul-18 20:30N 59°34' E 022°38'4 8.8
2017-Jul-18 20:01N 59°33' E 022°47'5 9.6
2017-Jul-18 19:30N 59°34' E 022°56'4 8.1
2017-Jul-18 19:01N 59°33' E 023°04'4 8.7
2017-Jul-18 18:30N 59°33' E 023°13'4 8.8
2017-Jul-18 18:00N 59°32' E 023°22'4 8.8
2017-Jul-18 17:30N 59°32' E 023°30'5 8.9
2017-Jul-18 17:00N 59°32' E 023°39'5 9.3
2017-Jul-18 16:30N 59°32' E 023°48'5 9.2
2017-Jul-18 16:00N 59°32' E 023°57'25 0.8
2017-Jul-17 07:46N 59°27' E 024°46'0 0.0
2017-Jul-17 07:30N 59°27' E 024°46'1 1.6
2017-Jul-17 07:00N 59°27' E 024°47'4 8.4
2017-Jul-17 06:31N 59°31' E 024°44'5 9.6
2017-Jul-17 06:00N 59°36' E 024°40'3 6.8
2017-Jul-17 05:30N 59°39' E 024°40'3 6.1
2017-Jul-17 05:00N 59°42' E 024°41'3 5.9
2017-Jul-17 04:31N 59°45' E 024°41'3 5.3
2017-Jul-17 04:00N 59°48' E 024°42'3 5.1
2017-Jul-17 03:30N 59°50' E 024°45'3 5.5
2017-Jul-17 03:01N 59°50' E 024°50'3 5.5
2017-Jul-17 02:31N 59°51' E 024°56'3 5.7
2017-Jul-17 02:00N 59°51' E 025°01'3 5.6
2017-Jul-17 01:30N 59°52' E 025°07'3 5.6
2017-Jul-17 01:01N 59°52' E 025°12'3 5.7
2017-Jul-17 00:31N 59°53' E 025°18'3 5.4
2017-Jul-17 00:00N 59°54' E 025°23'3 5.4
2017-Jul-16 23:30N 59°54' E 025°28'3 5.8
2017-Jul-16 23:01N 59°54' E 025°34'3 6.1
2017-Jul-16 22:30N 59°55' E 025°40'3 5.9
2017-Jul-16 22:00N 59°55' E 025°46'3 5.6
2017-Jul-16 21:31N 59°56' E 025°51'3 5.8
2017-Jul-16 21:00N 59°58' E 025°56'3 6.1
2017-Jul-16 20:30N 59°60' E 026°01'3 5.1
2017-Jul-16 20:00N 60°02' E 026°04'2 4.8
2017-Jul-16 19:30N 60°03' E 026°08'3 5.4
2017-Jul-16 19:00N 60°05' E 026°11'3 5.4
2017-Jul-16 18:30N 60°07' E 026°15'3 5.3
2017-Jul-16 18:00N 60°09' E 026°19'3 5.4
2017-Jul-16 17:30N 60°11' E 026°22'3 5.7
2017-Jul-16 17:01N 60°14' E 026°25'1 2.7
2017-Jul-16 16:30N 60°15' E 026°26'3 5.3
2017-Jul-16 16:00N 60°17' E 026°30'5 9.2
2017-Jul-16 15:31N 60°20' E 026°37'4 7.1
2017-Jul-16 15:00N 60°22' E 026°42'4 7.2
2017-Jul-16 14:30N 60°23' E 026°49'3 6.3
2017-Jul-16 14:00N 60°25' E 026°55'2 3.8
2017-Jul-16 13:31N 60°26' E 026°58'2 3.0
2017-Jul-16 13:00N 60°28' E 026°58'1 1.7
2017-Jul-16 12:30N 60°28' E 026°58'0 0.9
2017-Jul-16 12:00N 60°28' E 026°57'  
Track history (hours):
 
Tides and Currents Weather Stations Pressure Air Temp Water Temp Dewpoint Dewpoint Depression Visibility Wind Speed Wind Dir Waves Ship Positions

Shabab Oman 2

Last reported at 2017-Jul-25 18:54 UTC. Time now 2017-Jul-26 10:48 UTC.
Position N 56°39' E 018°27'.

Length 86 m; draft 5.4 m.

Type: Sailing vessel. MMSI: 461000441.

Date/timePositionNaut miles runAvg speedWind from/ knotsBaromVisibWave heightAir tempDewpointWater temp
2017-Jul-25 18:54N 56°39' E 018°27'145 6.4
2017-Jul-24 20:17N 58°59' E 019°38'2 6.5
2017-Jul-24 19:59N 59°01' E 019°40'6 7.2
2017-Jul-24 19:07N 59°05' E 019°49'1 4.6
2017-Jul-24 18:59N 59°05' E 019°50'3 6.5
2017-Jul-24 18:30N 59°07' E 019°55'3 6.7
2017-Jul-24 18:00N 59°09' E 020°01'3 6.4
2017-Jul-24 17:29N 59°10' E 020°06'3 7.2
2017-Jul-24 17:00N 59°12' E 020°12'3 6.9
2017-Jul-24 16:30N 59°14' E 020°18'4 7.2
2017-Jul-24 16:00N 59°16' E 020°23'23 7.7
2017-Jul-24 13:01N 59°31' E 020°59'3 6.6
2017-Jul-24 12:30N 59°33' E 021°03'3 5.6
2017-Jul-24 12:00N 59°35' E 021°08'3 6.1
2017-Jul-24 11:30N 59°37' E 021°13'3 5.3
2017-Jul-24 11:00N 59°39' E 021°16'2 3.4
2017-Jul-24 10:31N 59°40' E 021°17'2 4.4
2017-Jul-24 10:00N 59°42' E 021°16'1 1.2
2017-Jul-24 09:30N 59°43' E 021°16'1 1.0
2017-Jul-24 09:00N 59°44' E 021°16'0 0.4
2017-Jul-24 08:31N 59°43' E 021°15'1 2.1
2017-Jul-24 08:00N 59°42' E 021°16'1 2.8
2017-Jul-24 07:30N 59°41' E 021°16'1 2.5
2017-Jul-24 07:00N 59°40' E 021°16'1 2.9
2017-Jul-24 06:30N 59°38' E 021°16'2 3.5
2017-Jul-24 06:00N 59°37' E 021°17'2 5.0
2017-Jul-24 05:31N 59°34' E 021°17'2 4.2
2017-Jul-24 05:00N 59°32' E 021°17'2 4.2
2017-Jul-24 04:30N 59°30' E 021°17'2 4.4
2017-Jul-24 04:00N 59°28' E 021°17'2 4.4
2017-Jul-24 03:30N 59°25' E 021°18'2 4.3
2017-Jul-24 03:00N 59°23' E 021°18'2 4.5
2017-Jul-24 02:30N 59°21' E 021°18'2 3.9
2017-Jul-24 02:00N 59°19' E 021°19'2 4.0
2017-Jul-24 01:30N 59°21' E 021°20'3 5.3
2017-Jul-24 01:00N 59°24' E 021°20'3 5.3
2017-Jul-24 00:30N 59°26' E 021°20'3 5.3
2017-Jul-24 00:00N 59°29' E 021°20'3 5.2
2017-Jul-23 23:30N 59°32' E 021°20'3 5.6
2017-Jul-23 23:00N 59°34' E 021°20'3 5.4
2017-Jul-23 22:30N 59°37' E 021°20'3 5.2
2017-Jul-23 22:00N 59°40' E 021°20'3 5.4
2017-Jul-23 21:30N 59°42' E 021°20'2 4.6
2017-Jul-23 21:00N 59°45' E 021°21'4 7.5
2017-Jul-23 20:30N 59°48' E 021°21'4 8.9
2017-Jul-23 20:00N 59°52' E 021°27'4 7.9
2017-Jul-23 19:30N 59°54' E 021°33'5 9.0
2017-Jul-23 19:01N 59°57' E 021°40'4 8.5
2017-Jul-23 18:30N 60°01' E 021°42'4 8.6
2017-Jul-23 18:00N 60°05' E 021°42'4 8.6
2017-Jul-23 17:30N 60°10' E 021°42'4 8.6
2017-Jul-23 17:00N 60°14' E 021°44'5 9.7
2017-Jul-23 16:30N 60°16' E 021°53'4 8.3
2017-Jul-23 16:00N 60°17' E 022°01'4 8.7
2017-Jul-23 15:31N 60°21' E 022°05'4 7.6
2017-Jul-23 15:00N 60°25' E 022°07'3 5.7
2017-Jul-23 14:30N 60°26' E 022°12'1 2.1
2017-Jul-23 14:00N 60°26' E 022°14'0 0.1
2017-Jul-23 13:30N 60°26' E 022°15'0 0.0
2017-Jul-23 13:00N 60°26' E 022°15'0 0.0
2017-Jul-23 12:31N 60°26' E 022°15'0 0.0
2017-Jul-23 12:00N 60°26' E 022°15'0 0.0
2017-Jul-23 11:30N 60°26' E 022°15'  
2017-Jul-19 11:59N 60°26' E 022°15'0 0.6
2017-Jul-19 11:30N 60°26' E 022°14'1 2.0
2017-Jul-19 11:01N 60°26' E 022°12'3 6.3
2017-Jul-19 10:31N 60°24' E 022°07'3 6.7
2017-Jul-19 10:01N 60°21' E 022°05'4 7.1
2017-Jul-19 09:30N 60°18' E 022°02'3 5.8
2017-Jul-19 09:00N 60°16' E 021°57'3 6.0
2017-Jul-19 08:30N 60°15' E 021°51'3 6.0
2017-Jul-19 08:01N 60°14' E 021°45'3 5.7
2017-Jul-19 07:30N 60°12' E 021°42'3 6.4
2017-Jul-19 07:01N 60°08' E 021°41'3 5.7
2017-Jul-19 06:30N 60°06' E 021°42'3 6.3
2017-Jul-19 06:01N 60°02' E 021°41'3 5.1
2017-Jul-19 05:31N 59°60' E 021°42'3 5.4
2017-Jul-19 05:01N 59°57' E 021°41'3 5.9
2017-Jul-19 04:30N 59°55' E 021°37'3 5.9
2017-Jul-19 04:00N 59°53' E 021°32'3 6.4
2017-Jul-19 03:31N 59°52' E 021°27'3 5.8
2017-Jul-19 03:00N 59°50' E 021°23'3 5.3
2017-Jul-19 02:30N 59°47' E 021°21'2 4.7
2017-Jul-19 02:01N 59°45' E 021°21'1 2.8
2017-Jul-19 01:30N 59°44' E 021°20'4 8.6
2017-Jul-19 01:00N 59°40' E 021°22'4 8.5
2017-Jul-19 00:31N 59°36' E 021°27'4 8.8
2017-Jul-19 00:00N 59°35' E 021°36'4 8.8
2017-Jul-18 23:30N 59°35' E 021°45'4 9.0
2017-Jul-18 23:00N 59°35' E 021°53'4 9.0
2017-Jul-18 22:30N 59°35' E 022°02'4 9.0
2017-Jul-18 22:00N 59°35' E 022°11'5 9.0
2017-Jul-18 21:30N 59°34' E 022°20'4 9.0
2017-Jul-18 21:00N 59°34' E 022°29'5 9.5
2017-Jul-18 20:30N 59°34' E 022°38'4 8.8
2017-Jul-18 20:01N 59°33' E 022°47'5 9.6
2017-Jul-18 19:30N 59°34' E 022°56'4 8.1
2017-Jul-18 19:01N 59°33' E 023°04'4 8.7
2017-Jul-18 18:30N 59°33' E 023°13'4 8.8
2017-Jul-18 18:00N 59°32' E 023°22'4 8.8
2017-Jul-18 17:30N 59°32' E 023°30'5 8.9
2017-Jul-18 17:00N 59°32' E 023°39'5 9.3
2017-Jul-18 16:30N 59°32' E 023°48'5 9.2
2017-Jul-18 16:00N 59°32' E 023°57'25 0.8
2017-Jul-17 07:46N 59°27' E 024°46'0 0.0
2017-Jul-17 07:30N 59°27' E 024°46'1 1.6
2017-Jul-17 07:00N 59°27' E 024°47'4 8.4
2017-Jul-17 06:31N 59°31' E 024°44'5 9.6
2017-Jul-17 06:00N 59°36' E 024°40'3 6.8
2017-Jul-17 05:30N 59°39' E 024°40'3 6.1
2017-Jul-17 05:00N 59°42' E 024°41'3 5.9
2017-Jul-17 04:31N 59°45' E 024°41'3 5.3
2017-Jul-17 04:00N 59°48' E 024°42'3 5.1
2017-Jul-17 03:30N 59°50' E 024°45'3 5.5
2017-Jul-17 03:01N 59°50' E 024°50'3 5.5
2017-Jul-17 02:31N 59°51' E 024°56'3 5.7
2017-Jul-17 02:00N 59°51' E 025°01'3 5.6
2017-Jul-17 01:30N 59°52' E 025°07'3 5.6
2017-Jul-17 01:01N 59°52' E 025°12'3 5.7
2017-Jul-17 00:31N 59°53' E 025°18'3 5.4
2017-Jul-17 00:00N 59°54' E 025°23'3 5.4
2017-Jul-16 23:30N 59°54' E 025°28'3 5.8
2017-Jul-16 23:01N 59°54' E 025°34'3 6.1
2017-Jul-16 22:30N 59°55' E 025°40'3 5.9
2017-Jul-16 22:00N 59°55' E 025°46'3 5.6
2017-Jul-16 21:31N 59°56' E 025°51'3 5.8
2017-Jul-16 21:00N 59°58' E 025°56'3 6.1
2017-Jul-16 20:30N 59°60' E 026°01'3 5.1
2017-Jul-16 20:00N 60°02' E 026°04'2 4.8
2017-Jul-16 19:30N 60°03' E 026°08'3 5.4
2017-Jul-16 19:00N 60°05' E 026°11'3 5.4
2017-Jul-16 18:30N 60°07' E 026°15'3 5.3
2017-Jul-16 18:00N 60°09' E 026°19'3 5.4
2017-Jul-16 17:30N 60°11' E 026°22'3 5.7
2017-Jul-16 17:01N 60°14' E 026°25'1 2.7
2017-Jul-16 16:30N 60°15' E 026°26'3 5.3
2017-Jul-16 16:00N 60°17' E 026°30'5 9.2
2017-Jul-16 15:31N 60°20' E 026°37'4 7.1
2017-Jul-16 15:00N 60°22' E 026°42'4 7.2
2017-Jul-16 14:30N 60°23' E 026°49'3 6.3
2017-Jul-16 14:00N 60°25' E 026°55'2 3.8
2017-Jul-16 13:31N 60°26' E 026°58'2 3.0
2017-Jul-16 13:00N 60°28' E 026°58'1 1.7
2017-Jul-16 12:30N 60°28' E 026°58'0 0.9
2017-Jul-16 12:00N 60°28' E 026°57'  

Dump ship's entire track history